Time;durP1;ratioP1;P1;durP2;ratioP2;P2;SDS_P1;SDS_P2;PMS_P1;PMS_P2;Temp;Humidity;BMP_temperature;BMP_pressure;BME280_temperature;BME280_humidity;BME280_pressure;Samples;Min_cycle;Max_cycle;Signal;HPM_P1;HPM_P2
2020/12/14 00:03:32;;;;;;;2.80;0.68;;;15.40;59.50;;;;;;5376561;23;7030295;-68
2020/12/14 00:05:58;;;;;;;2.92;1.00;;;15.40;59.50;;;;;;4957540;29;20035;-68
2020/12/14 00:08:24;;;;;;;1.92;0.70;;;15.40;59.40;;;;;;4924240;29;20024;-68
2020/12/14 00:10:49;;;;;;;2.47;1.15;;;15.40;59.50;;;;;;4957722;29;20027;-68
2020/12/14 00:13:15;;;;;;;2.47;1.02;;;15.40;59.50;;;;;;4956995;29;20030;-68
2020/12/14 00:15:40;;;;;;;2.83;0.65;;;15.40;59.60;;;;;;4940142;29;20482;-68
2020/12/14 00:18:06;;;;;;;2.63;0.75;;;15.40;59.60;;;;;;4957350;29;20019;-68
2020/12/14 00:20:31;;;;;;;1.90;1.00;;;15.40;59.60;;;;;;4957283;29;20058;-68
2020/12/14 00:22:57;;;;;;;1.60;0.80;;;15.40;59.60;;;;;;4957149;29;20478;-68
2020/12/14 00:25:23;;;;;;;1.92;0.90;;;15.40;59.70;;;;;;4957178;29;20469;-68
2020/12/14 00:27:48;;;;;;;1.98;1.00;;;15.40;59.70;;;;;;4957129;29;20035;-68
2020/12/14 00:30:14;;;;;;;2.67;1.05;;;15.30;59.70;;;;;;4957077;29;20257;-68
2020/12/14 00:32:39;;;;;;;1.38;0.55;;;15.30;59.70;;;;;;4957300;29;20023;-68
2020/12/14 00:35:05;;;;;;;1.63;0.80;;;15.30;59.70;;;;;;4956888;29;20034;-68
2020/12/14 00:37:31;;;;;;;2.70;1.00;;;15.30;59.80;;;;;;4956536;28;20027;-68
2020/12/14 00:39:56;;;;;;;1.38;0.80;;;15.30;59.80;;;;;;4939577;29;20054;-67
2020/12/14 00:42:22;;;;;;;1.88;0.80;;;15.30;59.80;;;;;;4956844;29;20027;-68
2020/12/14 00:44:47;;;;;;;1.50;0.80;;;15.30;59.80;;;;;;4956790;29;20028;-68
2020/12/14 00:47:16;;;;;;;1.27;0.70;;;15.30;59.90;;;;;;4956733;29;20025;-68
2020/12/14 00:49:41;;;;;;;1.92;0.70;;;15.30;59.90;;;;;;4956620;29;20035;-68
2020/12/14 00:52:07;;;;;;;1.90;0.82;;;15.40;60.00;;;;;;4956663;29;20493;-68
2020/12/14 00:54:32;;;;;;;1.63;0.60;;;15.30;59.90;;;;;;4956616;29;20063;-68
2020/12/14 00:56:58;;;;;;;1.17;0.63;;;15.30;60.00;;;;;;4956636;29;20019;-68
2020/12/14 00:59:24;;;;;;;1.08;0.73;;;15.20;60.00;;;;;;4956484;29;20035;-68
2020/12/14 01:01:54;;;;;;;2.42;0.75;;;15.20;60.00;;;;;;4956537;29;20496;-68
2020/12/14 01:04:20;;;;;;;2.10;0.70;;;15.20;60.00;;;;;;4945089;28;20570;-68
2020/12/14 01:06:49;;;;;;;1.35;0.60;;;15.20;60.00;;;;;;4937201;29;20060;-68
2020/12/14 01:09:15;;;;;;;1.13;0.60;;;15.20;60.00;;;;;;4937135;29;20042;-68
2020/12/14 01:11:40;;;;;;;1.48;0.60;;;15.20;60.00;;;;;;4937417;29;20024;-68
2020/12/14 01:14:06;;;;;;;1.73;0.80;;;15.20;60.10;;;;;;4937108;29;20042;-68
2020/12/14 01:16:32;;;;;;;2.22;1.00;;;15.20;60.10;;;;;;4937122;29;20063;-68
2020/12/14 01:18:57;;;;;;;1.63;0.60;;;15.20;60.10;;;;;;4936992;29;20031;-68
2020/12/14 01:21:24;;;;;;;2.10;0.90;;;15.20;60.10;;;;;;4937238;29;20027;-68
2020/12/14 01:23:49;;;;;;;1.42;0.70;;;15.20;60.20;;;;;;4936916;29;20374;-68
2020/12/14 01:26:15;;;;;;;2.35;0.80;;;15.20;60.40;;;;;;4937182;29;20020;-68
2020/12/14 01:28:41;;;;;;;0.88;0.43;;;15.20;60.20;;;;;;4936708;29;20104;-68
2020/12/14 01:31:07;;;;;;;0.63;0.47;;;15.20;60.20;;;;;;4936792;29;20498;-68
2020/12/14 01:33:32;;;;;;;0.77;0.50;;;15.20;60.30;;;;;;4936783;29;20107;-68
2020/12/14 01:35:58;;;;;;;1.55;1.13;;;15.10;60.30;;;;;;4936708;29;20032;-68
2020/12/14 01:38:23;;;;;;;2.33;1.27;;;15.10;60.30;;;;;;4936904;29;20034;-68
2020/12/14 01:40:49;;;;;;;0.50;0.40;;;15.10;60.30;;;;;;4936635;29;20034;-68
2020/12/14 01:43:15;;;;;;;0.73;0.35;;;15.10;60.30;;;;;;4936583;29;20035;-68
2020/12/14 01:45:40;;;;;;;1.73;0.65;;;15.10;60.40;;;;;;4936512;29;20466;-68
2020/12/14 01:48:08;;;;;;;0.55;0.40;;;15.10;60.40;;;;;;4936510;29;20055;-67
2020/12/14 01:50:35;;;;;;;2.67;0.40;;;15.10;60.40;;;;;;4935629;29;20469;-68
2020/12/14 01:53:02;;;;;;;1.10;0.50;;;15.10;60.40;;;;;;4936709;29;20036;-68
2020/12/14 01:55:41;;;;;;;1.40;0.60;;;15.10;60.50;;;;;;4936585;29;20026;-68
2020/12/14 01:58:07;;;;;;;1.40;0.60;;;15.10;60.60;;;;;;4936408;29;20028;-68
2020/12/14 02:00:33;;;;;;;0.73;0.50;;;15.20;60.60;;;;;;4936089;29;20031;-68
2020/12/14 02:02:59;;;;;;;0.63;0.40;;;15.10;60.60;;;;;;4938455;28;20027;-68
2020/12/14 02:05:24;;;;;;;1.00;0.60;;;14.90;60.40;;;;;;4936232;29;20035;-68
2020/12/14 02:07:50;;;;;;;0.77;0.45;;;15.00;60.60;;;;;;4919044;29;20032;-68
2020/12/14 02:10:16;;;;;;;0.80;0.50;;;15.00;60.60;;;;;;4936052;29;20036;-68
2020/12/14 02:12:42;;;;;;;1.48;0.70;;;15.00;60.60;;;;;;4936334;29;20530;-68
2020/12/14 02:15:08;;;;;;;0.93;0.45;;;15.00;60.70;;;;;;4936051;29;20036;-68
2020/12/14 02:17:33;;;;;;;0.95;0.50;;;15.00;60.70;;;;;;4936030;29;20485;-68
2020/12/14 02:19:59;;;;;;;1.42;0.60;;;15.00;60.70;;;;;;4935826;29;20031;-68
2020/12/14 02:22:26;;;;;;;2.00;0.70;;;15.00;60.70;;;;;;4935890;29;20023;-68
2020/12/14 02:25:12;;;;;;;1.05;0.50;;;15.00;60.70;;;;;;4935689;29;20032;-68
2020/12/14 02:27:38;;;;;;;0.88;0.60;;;15.00;60.80;;;;;;4935323;29;20576;-68
2020/12/14 02:30:05;;;;;;;1.00;0.52;;;15.00;60.80;;;;;;4935692;29;20043;-67
2020/12/14 02:32:31;;;;;;;2.40;0.50;;;15.00;60.80;;;;;;4935907;29;20020;-68
2020/12/14 02:34:57;;;;;;;1.55;0.50;;;15.00;60.90;;;;;;4918674;29;20028;-68
2020/12/14 02:37:28;;;;;;;0.73;0.50;;;15.00;60.90;;;;;;4935516;29;20034;-68
2020/12/14 02:39:54;;;;;;;1.27;0.65;;;15.00;60.90;;;;;;4935441;29;20031;-68
2020/12/14 02:42:22;;;;;;;1.60;0.60;;;15.00;60.90;;;;;;4935795;29;20023;-68
2020/12/14 02:44:48;;;;;;;1.17;0.55;;;14.90;61.00;;;;;;4935481;29;20046;-68
2020/12/14 02:47:14;;;;;;;1.20;0.40;;;14.90;61.00;;;;;;4935500;29;20482;-69
2020/12/14 02:49:41;;;;;;;0.93;0.40;;;14.90;61.00;;;;;;4935379;29;20645;-68
2020/12/14 02:52:08;;;;;;;1.17;0.50;;;14.90;61.00;;;;;;4935424;29;20185;-68
2020/12/14 02:54:34;;;;;;;0.95;0.50;;;14.90;61.00;;;;;;4935918;29;20040;-68
2020/12/14 02:57:00;;;;;;;1.15;0.65;;;14.90;61.00;;;;;;4935390;29;20027;-68
2020/12/14 02:59:26;;;;;;;1.80;0.55;;;14.90;61.10;;;;;;4935345;29;20106;-68
2020/12/14 03:01:52;;;;;;;1.23;0.80;;;14.90;61.10;;;;;;4935269;29;20236;-68
2020/12/14 03:04:24;;;;;;;0.68;0.40;;;14.90;61.10;;;;;;4937373;28;20534;-68
2020/12/14 03:06:50;;;;;;;1.23;0.65;;;14.90;61.10;;;;;;4935231;29;20043;-68
2020/12/14 03:09:18;;;;;;;1.00;0.47;;;14.90;61.20;;;;;;4935353;29;20040;-68
2020/12/14 03:11:44;;;;;;;1.15;0.50;;;14.90;61.20;;;;;;4935406;29;20115;-67
2020/12/14 03:14:10;;;;;;;0.80;0.47;;;14.90;61.20;;;;;;4935151;29;20538;-68
2020/12/14 03:16:43;;;;;;;0.88;0.40;;;14.90;61.20;;;;;;4935150;29;20079;-68
2020/12/14 03:19:09;;;;;;;1.13;0.43;;;14.90;61.20;;;;;;4918120;29;20286;-68
2020/12/14 03:21:34;;;;;;;0.55;0.50;;;14.90;61.30;;;;;;4935161;29;20206;-68
2020/12/14 03:24:00;;;;;;;0.68;0.52;;;14.80;61.20;;;;;;4935116;29;20032;-68
2020/12/14 03:26:26;;;;;;;2.58;0.70;;;14.90;61.40;;;;;;4935241;29;20028;-68
2020/12/14 03:28:51;;;;;;;1.08;0.50;;;14.90;61.40;;;;;;4935018;29;20066;-68
2020/12/14 03:31:17;;;;;;;0.70;0.57;;;14.80;61.30;;;;;;4935024;29;20107;-68
2020/12/14 03:33:43;;;;;;;1.00;0.60;;;14.80;61.40;;;;;;4935129;29;20028;-68
2020/12/14 03:36:08;;;;;;;1.42;0.35;;;14.80;61.30;;;;;;4917961;29;20067;-69
2020/12/14 03:38:34;;;;;;;1.15;0.73;;;14.90;61.40;;;;;;4935030;29;20114;-68
2020/12/14 03:41:06;;;;;;;1.02;0.30;;;14.80;61.40;;;;;;4935010;29;20038;-68
2020/12/14 03:43:32;;;;;;;0.88;0.50;;;14.80;61.40;;;;;;4918143;29;20035;-68
2020/12/14 03:45:58;;;;;;;0.50;0.30;;;14.80;61.50;;;;;;4935178;29;20043;-68
2020/12/14 03:48:24;;;;;;;0.65;0.40;;;14.80;61.50;;;;;;4935141;29;20024;-68
2020/12/14 03:50:50;;;;;;;0.70;0.40;;;14.80;61.50;;;;;;4934996;29;20111;-68
2020/12/14 03:53:16;;;;;;;0.57;0.40;;;14.80;61.50;;;;;;4934946;29;20446;-68
2020/12/14 03:55:41;;;;;;;0.90;0.43;;;14.80;61.50;;;;;;4935027;29;20031;-68
2020/12/14 03:58:07;;;;;;;2.40;0.57;;;14.80;61.50;;;;;;4935073;29;20055;-68
2020/12/14 04:00:34;;;;;;;0.57;0.40;;;14.80;61.50;;;;;;4935081;29;20028;-68
2020/12/14 04:03:03;;;;;;;1.10;0.43;;;14.80;61.60;;;;;;4935126;29;20028;-68
2020/12/14 04:05:29;;;;;;;0.65;0.40;;;14.80;61.60;;;;;;4934411;29;20052;-68
2020/12/14 04:07:54;;;;;;;0.63;0.50;;;14.80;61.70;;;;;;4934672;29;20058;-68
2020/12/14 04:10:20;;;;;;;0.63;0.50;;;14.70;61.70;;;;;;4934778;29;20047;-68
2020/12/14 04:12:46;;;;;;;0.50;0.38;;;14.70;61.70;;;;;;4935513;29;20031;-68
2020/12/14 04:15:11;;;;;;;0.98;0.57;;;14.80;61.70;;;;;;4938289;29;20382;-68
2020/12/14 04:17:37;;;;;;;0.75;0.50;;;14.80;61.80;;;;;;4938138;29;20407;-68
2020/12/14 04:20:03;;;;;;;1.25;0.77;;;14.70;61.70;;;;;;4938073;29;20094;-68
2020/12/14 04:22:28;;;;;;;0.65;0.30;;;14.70;61.70;;;;;;4938135;29;20058;-68
2020/12/14 04:24:54;;;;;;;0.77;0.40;;;14.70;61.70;;;;;;4938377;29;20039;-68
2020/12/14 04:27:19;;;;;;;2.00;0.68;;;14.70;61.70;;;;;;4938293;29;20436;-68
2020/12/14 04:29:45;;;;;;;1.17;0.57;;;14.70;61.80;;;;;;4937945;29;20123;-68
2020/12/14 04:32:11;;;;;;;0.63;0.35;;;14.70;61.80;;;;;;4937852;29;20110;-68
2020/12/14 04:34:36;;;;;;;0.82;0.50;;;14.70;61.80;;;;;;4937868;29;20086;-68
2020/12/14 04:37:02;;;;;;;1.08;0.40;;;14.70;61.80;;;;;;4937901;29;20036;-68
2020/12/14 04:39:28;;;;;;;0.77;0.52;;;14.70;61.80;;;;;;4937831;29;20103;-68
2020/12/14 04:41:57;;;;;;;0.40;0.40;;;14.70;61.90;;;;;;4937800;29;20032;-68
2020/12/14 04:44:23;;;;;;;0.85;0.40;;;14.70;61.90;;;;;;4937935;29;20031;-68
2020/12/14 04:46:49;;;;;;;1.90;0.70;;;14.70;61.90;;;;;;4920617;29;20031;-68
2020/12/14 04:49:15;;;;;;;0.40;0.30;;;14.70;62.00;;;;;;4937678;29;20119;-68
2020/12/14 04:51:41;;;;;;;1.15;0.40;;;14.60;61.90;;;;;;4937670;29;20043;-68
2020/12/14 04:54:07;;;;;;;0.65;0.30;;;14.60;62.60;;;;;;4937829;29;20024;-68
2020/12/14 04:56:41;;;;;;;0.60;0.30;;;14.70;62.00;;;;;;4937632;29;20382;-68
2020/12/14 04:59:13;;;;;;;0.65;0.32;;;14.60;62.00;;;;;;4937376;29;20486;-68
2020/12/14 05:01:38;;;;;;;0.60;0.30;;;14.60;62.00;;;;;;4920332;29;20156;-68
2020/12/14 05:04:04;;;;;;;1.00;0.88;;;14.70;62.10;;;;;;4939553;28;20502;-68
2020/12/14 05:06:50;;;;;;;1.05;0.40;;;14.60;62.10;;;;;;4937321;29;20035;-68
2020/12/14 05:09:17;;;;;;;0.75;0.65;;;14.60;62.10;;;;;;4937663;29;20114;-68
2020/12/14 05:11:42;;;;;;;1.70;0.30;;;14.70;62.30;;;;;;4937224;29;20040;-68
2020/12/14 05:14:28;;;;;;;0.90;0.60;;;14.60;62.20;;;;;;4937187;29;20175;-68
2020/12/14 05:16:54;;;;;;;0.40;0.40;;;14.60;62.10;;;;;;4937155;29;20482;-68
2020/12/14 05:19:23;;;;;;;1.17;0.50;;;14.60;62.20;;;;;;4937335;29;20370;-68
2020/12/14 05:21:59;;;;;;;0.40;0.40;;;14.60;62.20;;;;;;4936959;29;20028;-68
2020/12/14 05:24:29;;;;;;;1.17;0.47;;;14.60;62.20;;;;;;4935913;29;20061;-68
2020/12/14 05:26:56;;;;;;;;;;;14.60;62.20;;;;;;4937385;29;20020;-68
2020/12/14 05:29:29;;;;;;;1.13;0.30;;;14.60;62.20;;;;;;4937028;29;19931;-68
2020/12/14 05:32:11;;;;;;;1.30;0.50;;;14.60;62.30;;;;;;4936786;29;20028;-68
2020/12/14 05:34:42;;;;;;;0.85;0.50;;;14.60;62.30;;;;;;4936782;29;20074;-68
2020/12/14 05:37:08;;;;;;;;;;;14.60;62.30;;;;;;4937269;29;20077;-68
2020/12/14 05:39:35;;;;;;;0.82;0.40;;;14.60;62.30;;;;;;4936705;29;19989;-68
2020/12/14 05:42:18;;;;;;;0.75;0.30;;;14.60;62.30;;;;;;4936572;29;20024;-68
2020/12/14 05:44:46;;;;;;;0.55;0.45;;;14.60;62.30;;;;;;4936622;29;20035;-68
2020/12/14 05:47:43;;;;;;;0.57;0.40;;;14.60;62.30;;;;;;4936839;29;20046;-68
2020/12/14 05:50:10;;;;;;;0.57;0.30;;;14.60;62.30;;;;;;4894138;29;20047;-68
2020/12/14 05:52:51;;;;;;;0.45;0.35;;;14.50;62.30;;;;;;4936583;29;20052;-68
2020/12/14 05:55:20;;;;;;;0.98;0.40;;;14.60;62.40;;;;;;4936477;29;20035;-68
2020/12/14 05:57:50;;;;;;;0.70;0.30;;;14.60;62.50;;;;;;4936312;29;20087;-68
2020/12/14 06:00:17;;;;;;;2.15;0.50;;;14.60;62.50;;;;;;4936371;29;20494;-67
2020/12/14 06:02:43;;;;;;;0.80;0.40;;;14.60;62.60;;;;;;4936312;29;20055;-68
2020/12/14 06:05:09;;;;;;;0.50;0.30;;;14.60;62.70;;;;;;4966740;28;20053;-68
2020/12/14 06:07:39;;;;;;;0.35;0.35;;;14.70;63.20;;;;;;4957366;28;20169;-69
2020/12/14 06:10:08;;;;;;;0.40;0.30;;;14.70;63.40;;;;;;4974568;28;20041;-68
2020/12/14 06:12:36;;;;;;;0.65;0.30;;;14.80;63.40;;;;;;4974662;28;20027;-68
2020/12/14 06:15:09;;;;;;;0.57;0.40;;;14.90;63.40;;;;;;4974648;28;20066;-68
2020/12/14 06:17:36;;;;;;;0.40;0.30;;;15.00;63.40;;;;;;4974804;28;20066;-68
2020/12/14 06:20:13;;;;;;;0.50;0.32;;;15.20;63.00;;;;;;4974466;28;20448;-69
2020/12/14 06:22:50;;;;;;;0.38;0.30;;;15.30;62.80;;;;;;4974506;28;20031;-70
2020/12/14 06:25:17;;;;;;;0.60;0.40;;;15.40;62.60;;;;;;4974730;28;20030;-70
2020/12/14 06:27:43;;;;;;;0.70;0.40;;;15.50;62.60;;;;;;4974331;28;20023;-69
2020/12/14 06:30:29;;;;;;;3.65;0.60;;;15.50;62.60;;;;;;4974283;28;20049;-70
2020/12/14 06:33:00;;;;;;;1.40;0.43;;;15.50;62.50;;;;;;4974215;28;20085;-70
2020/12/14 06:35:48;;;;;;;0.65;0.40;;;15.60;62.50;;;;;;4973715;28;20492;-70
2020/12/14 06:38:37;;;;;;;0.70;0.43;;;15.60;62.50;;;;;;4974403;28;20019;-70
2020/12/14 06:41:09;;;;;;;1.07;0.50;;;15.60;62.50;;;;;;4974371;28;20105;-69
2020/12/14 06:43:35;;;;;;;3.90;0.40;;;15.60;62.40;;;;;;4974090;28;20026;-70
2020/12/14 06:46:04;;;;;;;0.20;0.20;;;15.50;62.50;;;;;;4956676;28;20038;-72
2020/12/14 06:48:51;;;;;;;1.10;0.40;;;15.60;62.60;;;;;;4973909;28;20113;-72
2020/12/14 06:51:17;;;;;;;0.40;0.40;;;15.70;62.70;;;;;;4973311;28;20035;-73
2020/12/14 06:53:49;;;;;;;1.80;0.70;;;15.60;62.70;;;;;;4971973;28;20030;-73
2020/12/14 06:56:28;;;;;;;3.60;0.45;;;15.60;62.70;;;;;;4973675;28;20031;-73
2020/12/14 06:58:55;;;;;;;5.15;0.60;;;15.50;63.00;;;;;;4973392;28;20033;-72
2020/12/14 07:01:37;;;;;;;0.95;0.50;;;15.50;63.30;;;;;;4956087;28;20030;-71
2020/12/14 07:04:05;;;;;;;4.03;0.60;;;15.50;63.20;;;;;;4964346;28;20082;-72
2020/12/14 07:06:38;;;;;;;0.70;0.40;;;15.50;63.30;;;;;;4935456;29;20051;-75
2020/12/14 07:09:28;;;;;;;6.30;0.40;;;15.50;63.20;;;;;;4935436;29;20036;-68
2020/12/14 07:12:09;;;;;;;0.95;0.43;;;15.40;63.20;;;;;;4935047;29;20043;-69
2020/12/14 07:14:43;;;;;;;5.88;0.40;;;15.40;63.00;;;;;;4935454;29;20378;-72
2020/12/14 07:17:24;;;;;;;2.42;0.60;;;15.40;63.10;;;;;;4935208;29;20486;-72
2020/12/14 07:19:59;;;;;;;5.03;0.73;;;15.40;64.10;;;;;;4933944;29;20122;-72
2020/12/14 07:22:47;;;;;;;1.95;0.60;;;15.50;64.20;;;;;;4933852;29;20152;-73
2020/12/14 07:25:23;;;;;;;6.50;1.35;;;15.40;64.20;;;;;;4933945;29;20035;-72
2020/12/14 07:27:49;;;;;;;2.60;0.50;;;15.40;64.20;;;;;;4933155;29;20035;-71
2020/12/14 07:30:17;;;;;;;2.72;0.95;;;15.40;64.00;;;;;;4933326;29;20047;-71
2020/12/14 07:32:51;;;;;;;1.20;0.40;;;15.30;64.60;;;;;;4932886;29;20498;-71
2020/12/14 07:35:17;;;;;;;2.55;0.60;;;15.40;64.30;;;;;;4932851;29;20040;-70
2020/12/14 07:37:42;;;;;;;3.88;0.70;;;15.40;64.10;;;;;;4932065;29;20036;-71
2020/12/14 07:40:09;;;;;;;3.75;0.85;;;15.50;64.10;;;;;;4932059;29;20091;-70
2020/12/14 07:42:37;;;;;;;1.75;0.50;;;15.60;63.80;;;;;;4933303;29;20035;-71
2020/12/14 07:45:10;;;;;;;1.58;0.40;;;15.70;63.40;;;;;;4933681;29;20031;-71
2020/12/14 07:47:36;;;;;;;2.47;0.73;;;15.80;63.20;;;;;;4934279;29;20407;-70
2020/12/14 07:50:21;;;;;;;3.72;0.52;;;15.80;63.30;;;;;;4937352;29;20043;-71
2020/12/14 07:52:49;;;;;;;3.75;0.85;;;15.80;63.20;;;;;;4938599;29;20494;-71
2020/12/14 07:55:15;;;;;;;4.60;0.93;;;15.80;63.20;;;;;;4938580;29;20028;-71
2020/12/14 07:57:44;;;;;;;3.10;0.43;;;15.80;63.20;;;;;;4938536;29;20022;-71
2020/12/14 08:00:11;;;;;;;1.80;0.40;;;15.70;63.20;;;;;;4938854;29;20027;-71
2020/12/14 08:02:41;;;;;;;1.25;0.45;;;15.70;63.50;;;;;;4938482;29;20110;-70
2020/12/14 08:05:14;;;;;;;3.30;0.52;;;15.70;63.60;;;;;;4939979;28;20044;-70
2020/12/14 08:07:52;;;;;;;1.95;0.50;;;15.70;63.60;;;;;;4938492;29;20030;-70
2020/12/14 08:10:20;;;;;;;0.93;0.50;;;15.70;63.80;;;;;;4938249;29;20040;-70
2020/12/14 08:12:47;;;;;;;0.85;0.40;;;15.60;63.60;;;;;;4938352;29;20043;-70
2020/12/14 08:15:18;;;;;;;1.30;0.60;;;15.60;63.70;;;;;;4938258;29;20494;-70
2020/12/14 08:17:45;;;;;;;1.25;0.63;;;15.60;63.80;;;;;;4938046;29;20473;-71
2020/12/14 08:20:25;;;;;;;1.38;0.57;;;15.60;63.60;;;;;;4938074;29;20028;-73
2020/12/14 08:22:51;;;;;;;0.52;0.40;;;15.50;63.60;;;;;;4938283;29;20038;-72
2020/12/14 08:25:31;;;;;;;0.88;0.55;;;15.50;63.50;;;;;;4937171;29;20024;-73
2020/12/14 08:28:04;;;;;;;1.88;0.60;;;15.50;63.50;;;;;;4937264;29;20032;-73
2020/12/14 08:30:31;;;;;;;2.08;0.50;;;15.40;63.50;;;;;;4920723;29;20513;-70
2020/12/14 08:33:23;;;;;;;0.90;0.40;;;15.50;63.40;;;;;;4920920;29;20166;-73
2020/12/14 08:35:53;;;;;;;1.27;0.63;;;15.40;63.40;;;;;;4934374;29;20040;-70
2020/12/14 08:38:22;;;;;;;2.42;0.75;;;15.40;63.50;;;;;;4938172;29;20052;-71
2020/12/14 08:41:03;;;;;;;1.67;0.57;;;15.40;63.70;;;;;;4938138;29;20159;-71
2020/12/14 08:43:30;;;;;;;1.55;0.57;;;15.40;63.60;;;;;;4920737;29;20039;-71
2020/12/14 08:46:14;;;;;;;0.77;0.50;;;15.40;63.40;;;;;;4937605;29;20538;-71
2020/12/14 08:48:48;;;;;;;3.35;0.50;;;15.40;63.30;;;;;;4937601;29;20032;-69
2020/12/14 08:51:28;;;;;;;2.55;0.50;;;15.40;63.40;;;;;;4937872;29;20040;-76
2020/12/14 08:54:11;;;;;;;2.10;0.32;;;15.40;63.40;;;;;;4937583;29;20427;-72
2020/12/14 08:56:36;;;;;;;1.67;0.50;;;15.40;63.70;;;;;;4937713;29;20039;-72
2020/12/14 08:59:03;;;;;;;1.52;0.40;;;15.50;64.00;;;;;;4937242;29;20035;-71
2020/12/14 09:01:30;;;;;;;1.05;0.50;;;15.50;64.00;;;;;;4937451;29;20370;-72
2020/12/14 09:04:03;;;;;;;3.00;0.50;;;15.50;64.10;;;;;;4938994;28;20061;-72
2020/12/14 09:06:37;;;;;;;1.67;0.52;;;15.60;64.10;;;;;;4937363;29;20475;-71
2020/12/14 09:09:11;;;;;;;1.92;0.60;;;15.60;64.10;;;;;;4937197;29;20039;-72
2020/12/14 09:11:48;;;;;;;1.05;0.30;;;15.60;64.30;;;;;;4937301;29;20036;-72
2020/12/14 09:14:31;;;;;;;1.70;0.47;;;15.60;64.10;;;;;;4937303;29;20083;-72
2020/12/14 09:17:04;;;;;;;3.03;0.55;;;15.60;64.00;;;;;;4920269;29;20028;-73
2020/12/14 09:19:32;;;;;;;0.80;0.45;;;15.70;64.00;;;;;;4937343;29;20028;-72
2020/12/14 09:21:59;;;;;;;1.17;0.25;;;15.70;64.00;;;;;;4937064;29;20024;-72
2020/12/14 09:24:25;;;;;;;0.55;0.32;;;15.70;63.90;;;;;;4920029;29;20024;-71
2020/12/14 09:26:52;;;;;;;1.80;0.70;;;15.70;63.90;;;;;;4937131;29;20111;-72
2020/12/14 09:29:18;;;;;;;1.38;0.55;;;15.70;64.60;;;;;;4936926;29;20478;-72
2020/12/14 09:31:52;;;;;;;0.35;0.35;;;15.70;63.80;;;;;;4936946;29;20031;-71
2020/12/14 09:34:18;;;;;;;0.90;0.38;;;15.70;63.70;;;;;;4937189;29;20095;-70
2020/12/14 09:36:44;;;;;;;0.88;0.40;;;15.70;63.90;;;;;;4936898;29;20032;-70
2020/12/14 09:39:09;;;;;;;1.15;0.30;;;15.80;64.00;;;;;;4937009;29;20043;-70
2020/12/14 09:41:35;;;;;;;2.67;0.35;;;15.80;64.00;;;;;;4936734;29;20119;-70
2020/12/14 09:44:01;;;;;;;2.60;0.82;;;15.70;64.00;;;;;;4936705;29;20112;-70
2020/12/14 09:46:28;;;;;;;1.10;0.50;;;15.80;64.20;;;;;;4936630;29;20023;-70
2020/12/14 09:48:55;;;;;;;1.00;0.35;;;15.70;64.20;;;;;;4936504;29;20106;-73
2020/12/14 09:51:21;;;;;;;0.80;0.40;;;15.80;64.20;;;;;;4937158;29;20032;-72
2020/12/14 09:53:46;;;;;;;1.02;0.50;;;15.70;64.80;;;;;;4936855;29;20367;-72
2020/12/14 09:56:12;;;;;;;0.88;0.40;;;15.80;63.90;;;;;;4936482;29;20039;-74
2020/12/14 09:58:37;;;;;;;2.28;0.80;;;15.80;63.90;;;;;;4936358;29;20107;-72
2020/12/14 10:01:03;;;;;;;2.47;0.60;;;15.80;64.90;;;;;;4937236;29;20036;-71
2020/12/14 10:03:29;;;;;;;2.63;0.60;;;15.80;65.20;;;;;;4936269;29;20411;-71
2020/12/14 10:05:54;;;;;;;2.05;0.50;;;15.80;65.70;;;;;;4937819;28;20051;-71
2020/12/14 10:08:20;;;;;;;3.08;0.45;;;15.80;66.00;;;;;;4936267;29;20031;-75
2020/12/14 10:10:45;;;;;;;1.02;0.60;;;15.70;66.50;;;;;;4935495;29;20122;-74
2020/12/14 10:13:12;;;;;;;1.35;0.50;;;15.70;66.80;;;;;;4935836;29;20024;-73
2020/12/14 10:15:37;;;;;;;1.08;0.98;;;15.70;68.30;;;;;;4934174;29;20482;-73
2020/12/14 10:18:03;;;;;;;1.02;0.57;;;15.70;68.20;;;;;;4934171;29;20052;-73
2020/12/14 10:20:29;;;;;;;3.60;0.50;;;15.70;68.40;;;;;;4917326;29;20080;-73
2020/12/14 10:22:55;;;;;;;2.72;0.63;;;15.70;68.70;;;;;;4934456;29;20024;-73
2020/12/14 10:25:21;;;;;;;1.05;0.43;;;15.60;69.10;;;;;;4917382;29;20042;-73
2020/12/14 10:27:47;;;;;;;0.80;0.35;;;15.60;69.60;;;;;;4934406;29;20055;-72
2020/12/14 10:30:13;;;;;;;1.25;0.50;;;15.60;69.30;;;;;;4935609;29;20445;-72
2020/12/14 10:32:38;;;;;;;1.02;0.60;;;15.60;69.50;;;;;;4935950;29;20079;-72
2020/12/14 10:35:04;;;;;;;1.50;0.50;;;15.60;70.70;;;;;;4935717;29;20024;-73
2020/12/14 10:37:29;;;;;;;1.00;0.52;;;15.60;71.10;;;;;;4918619;29;20459;-73
2020/12/14 10:39:55;;;;;;;1.00;0.55;;;15.60;70.60;;;;;;4935728;29;20028;-70
2020/12/14 10:42:20;;;;;;;2.25;0.73;;;15.60;70.60;;;;;;4935689;29;20031;-70
2020/12/14 10:44:46;;;;;;;1.20;0.43;;;15.60;71.10;;;;;;4935631;29;20114;-70
2020/12/14 10:47:11;;;;;;;1.50;0.50;;;15.60;72.00;;;;;;4935620;29;20219;-71
2020/12/14 10:49:37;;;;;;;2.95;0.63;;;15.50;71.60;;;;;;4935438;29;20039;-72
2020/12/14 10:52:03;;;;;;;1.17;0.52;;;15.60;71.80;;;;;;4935598;29;20043;-71
2020/12/14 10:54:29;;;;;;;1.95;0.82;;;15.50;72.20;;;;;;4918568;29;20023;-68
2020/12/14 10:56:55;;;;;;;2.95;0.60;;;15.50;72.30;;;;;;4918390;29;20046;-71
2020/12/14 10:59:20;;;;;;;1.40;0.50;;;15.50;72.90;;;;;;4935377;29;20115;-71
2020/12/14 11:01:50;;;;;;;2.60;0.60;;;15.50;72.20;;;;;;4918285;29;20031;-70
2020/12/14 11:04:16;;;;;;;;;;;15.50;72.80;;;;;;4937381;28;20042;-71
2020/12/14 11:06:42;;;;;;;3.97;0.80;;;15.50;72.80;;;;;;4935455;29;19911;-69
2020/12/14 11:09:07;;;;;;;2.35;0.63;;;15.50;73.50;;;;;;4935325;29;20075;-70
2020/12/14 11:11:35;;;;;;;0.60;0.40;;;15.50;72.90;;;;;;4935263;29;20110;-70
2020/12/14 11:14:01;;;;;;;5.25;0.80;;;15.50;72.60;;;;;;4935335;29;20107;-70
2020/12/14 11:16:27;;;;;;;1.80;0.50;;;15.50;72.40;;;;;;4935273;29;20036;-70
2020/12/14 11:18:54;;;;;;;4.57;0.52;;;15.50;72.00;;;;;;4935144;29;20024;-70
2020/12/14 11:21:21;;;;;;;1.85;0.85;;;15.40;72.10;;;;;;4935398;29;20110;-70
2020/12/14 11:23:47;;;;;;;3.40;0.57;;;15.40;72.40;;;;;;4939196;29;20423;-70
2020/12/14 11:26:12;;;;;;;3.10;0.70;;;15.40;72.70;;;;;;4939166;29;20036;-70
2020/12/14 11:28:39;;;;;;;2.30;0.55;;;15.40;73.00;;;;;;4939066;29;20140;-69
2020/12/14 11:31:06;;;;;;;2.80;0.70;;;15.30;73.30;;;;;;4939101;29;20438;-69
2020/12/14 11:33:32;;;;;;;1.10;0.60;;;15.30;74.10;;;;;;4938894;29;20470;-69
2020/12/14 11:35:57;;;;;;;0.73;0.30;;;15.70;75.10;;;;;;4938888;29;20046;-69
2020/12/14 11:38:23;;;;;;;3.05;0.45;;;15.30;75.20;;;;;;4922103;29;20024;-69
2020/12/14 11:40:48;;;;;;;1.05;0.80;;;15.30;75.40;;;;;;4938878;29;20036;-69
2020/12/14 11:43:14;;;;;;;5.32;0.70;;;15.30;76.90;;;;;;4938936;29;20136;-69
2020/12/14 11:45:40;;;;;;;1.05;0.55;;;15.30;76.70;;;;;;4938815;29;20390;-69
2020/12/14 11:48:05;;;;;;;1.05;0.50;;;15.30;76.20;;;;;;4938725;29;20031;-70
2020/12/14 11:50:32;;;;;;;1.35;0.68;;;15.30;76.80;;;;;;4938698;29;20095;-70
2020/12/14 11:52:58;;;;;;;0.65;0.50;;;15.30;76.60;;;;;;4938713;29;20051;-69
2020/12/14 11:55:23;;;;;;;1.77;0.60;;;15.20;75.40;;;;;;4938743;29;20070;-70
2020/12/14 11:57:49;;;;;;;2.42;0.70;;;15.30;75.60;;;;;;4921507;29;20080;-70
2020/12/14 12:00:15;;;;;;;1.30;0.60;;;15.30;76.50;;;;;;4938531;29;20483;-69
2020/12/14 12:02:40;;;;;;;1.40;0.50;;;15.40;76.50;;;;;;4921168;29;20058;-69
2020/12/14 12:05:06;;;;;;;3.25;0.40;;;15.40;76.50;;;;;;4931282;28;20059;-70
2020/12/14 12:07:34;;;;;;;1.33;0.70;;;15.40;76.20;;;;;;4940226;29;20135;-70
2020/12/14 12:10:00;;;;;;;1.30;0.50;;;15.50;76.30;;;;;;4957751;29;20031;-69
2020/12/14 12:12:26;;;;;;;1.13;0.70;;;15.50;76.00;;;;;;4957504;29;20537;-70
2020/12/14 12:14:51;;;;;;;2.85;0.77;;;15.60;76.20;;;;;;4957468;29;20038;-69
2020/12/14 12:17:20;;;;;;;1.00;0.60;;;15.60;76.40;;;;;;4957309;29;20027;-70
2020/12/14 12:19:46;;;;;;;1.35;0.47;;;15.60;76.40;;;;;;4957272;29;20028;-69
2020/12/14 12:22:11;;;;;;;1.05;0.60;;;15.70;76.30;;;;;;4957377;29;20098;-69
2020/12/14 12:24:37;;;;;;;2.15;0.70;;;15.70;76.30;;;;;;4957247;29;20075;-71
2020/12/14 12:27:03;;;;;;;1.48;0.43;;;15.70;76.40;;;;;;4957196;29;20526;-71
2020/12/14 12:29:28;;;;;;;0.93;0.57;;;15.70;76.30;;;;;;4957118;29;20445;-71
2020/12/14 12:31:57;;;;;;;2.75;0.95;;;15.70;76.50;;;;;;4957195;29;20046;-71
2020/12/14 12:34:22;;;;;;;1.05;0.63;;;15.70;76.90;;;;;;4939184;29;20035;-68
2020/12/14 12:36:55;;;;;;;0.65;0.57;;;15.70;76.70;;;;;;4956991;29;20031;-68
2020/12/14 12:39:21;;;;;;;2.80;0.93;;;15.70;77.50;;;;;;4939593;29;20031;-72
2020/12/14 12:41:48;;;;;;;1.00;0.60;;;15.70;78.60;;;;;;4939708;29;20023;-66
2020/12/14 12:44:15;;;;;;;1.10;0.70;;;15.70;78.50;;;;;;4956829;29;20058;-69
2020/12/14 12:46:41;;;;;;;1.05;0.60;;;15.70;78.50;;;;;;4956797;29;20441;-69
2020/12/14 12:49:07;;;;;;;4.45;0.88;;;15.70;78.00;;;;;;4939518;29;20054;-69
2020/12/14 12:51:33;;;;;;;2.00;0.80;;;15.70;78.00;;;;;;4956869;29;20027;-68
2020/12/14 12:53:59;;;;;;;2.00;0.77;;;15.70;77.70;;;;;;4956773;29;20031;-69
2020/12/14 12:56:26;;;;;;;1.13;0.75;;;15.60;77.60;;;;;;4956699;29;20094;-69